sensor_id;sensor_type;location;lat;lon;timestamp;P1;durP1;ratioP1;P2;durP2;ratioP2
47545;SDS011;50104;52.002;4.688;2023-02-26T00:04:30;7.70;;;2.33;;
47545;SDS011;50104;52.002;4.688;2023-02-26T00:09:31;5.53;;;2.10;;
47545;SDS011;50104;52.002;4.688;2023-02-26T00:14:32;6.83;;;2.40;;
47545;SDS011;50104;52.002;4.688;2023-02-26T00:19:33;5.20;;;2.00;;
47545;SDS011;50104;52.002;4.688;2023-02-26T00:24:34;12.70;;;2.30;;
47545;SDS011;50104;52.002;4.688;2023-02-26T00:29:35;4.80;;;2.47;;
47545;SDS011;50104;52.002;4.688;2023-02-26T00:34:37;2.70;;;2.13;;
47545;SDS011;50104;52.002;4.688;2023-02-26T00:39:41;5.70;;;2.37;;
47545;SDS011;50104;52.002;4.688;2023-02-26T00:45:15;5.70;;;2.30;;
47545;SDS011;50104;52.002;4.688;2023-02-26T00:50:21;4.80;;;2.10;;
47545;SDS011;50104;52.002;4.688;2023-02-26T00:55:24;3.28;;;2.08;;
47545;SDS011;50104;52.002;4.688;2023-02-26T01:00:24;2.57;;;1.60;;
47545;SDS011;50104;52.002;4.688;2023-02-26T01:05:25;3.03;;;2.37;;
47545;SDS011;50104;52.002;4.688;2023-02-26T01:10:27;5.50;;;2.07;;
47545;SDS011;50104;52.002;4.688;2023-02-26T01:15:28;5.20;;;2.30;;
47545;SDS011;50104;52.002;4.688;2023-02-26T01:20:30;9.30;;;2.17;;
47545;SDS011;50104;52.002;4.688;2023-02-26T01:25:58;6.57;;;1.80;;
47545;SDS011;50104;52.002;4.688;2023-02-26T01:31:04;4.77;;;1.97;;
47545;SDS011;50104;52.002;4.688;2023-02-26T01:36:21;4.07;;;1.47;;
47545;SDS011;50104;52.002;4.688;2023-02-26T01:51:51;4.83;;;1.20;;
47545;SDS011;50104;52.002;4.688;2023-02-26T01:57:11;4.00;;;1.17;;
47545;SDS011;50104;52.002;4.688;2023-02-26T02:02:17;4.23;;;1.40;;
47545;SDS011;50104;52.002;4.688;2023-02-26T02:07:21;3.60;;;1.00;;
47545;SDS011;50104;52.002;4.688;2023-02-26T02:12:37;3.17;;;1.20;;
47545;SDS011;50104;52.002;4.688;2023-02-26T02:19:06;4.07;;;0.97;;
47545;SDS011;50104;52.002;4.688;2023-02-26T02:23:46;5.27;;;1.10;;
47545;SDS011;50104;52.002;4.688;2023-02-26T02:34:39;1.73;;;1.00;;
47545;SDS011;50104;52.002;4.688;2023-02-26T02:40:11;7.30;;;1.23;;
47545;SDS011;50104;52.002;4.688;2023-02-26T02:45:20;2.40;;;1.00;;
47545;SDS011;50104;52.002;4.688;2023-02-26T02:51:18;3.73;;;1.27;;
47545;SDS011;50104;52.002;4.688;2023-02-26T02:56:07;3.37;;;1.00;;
47545;SDS011;50104;52.002;4.688;2023-02-26T03:01:31;5.50;;;1.27;;
47545;SDS011;50104;52.002;4.688;2023-02-26T03:06:34;7.60;;;2.23;;
47545;SDS011;50104;52.002;4.688;2023-02-26T03:11:35;2.93;;;0.90;;
47545;SDS011;50104;52.002;4.688;2023-02-26T03:38:26;3.77;;;1.00;;
47545;SDS011;50104;52.002;4.688;2023-02-26T03:43:47;1.83;;;0.90;;
47545;SDS011;50104;52.002;4.688;2023-02-26T03:48:54;2.63;;;1.10;;
47545;SDS011;50104;52.002;4.688;2023-02-26T03:54:00;1.63;;;1.10;;
47545;SDS011;50104;52.002;4.688;2023-02-26T03:59:08;4.67;;;1.30;;
47545;SDS011;50104;52.002;4.688;2023-02-26T04:04:30;7.67;;;1.03;;
47545;SDS011;50104;52.002;4.688;2023-02-26T04:10:10;2.83;;;1.00;;
47545;SDS011;50104;52.002;4.688;2023-02-26T04:15:17;1.10;;;1.10;;
47545;SDS011;50104;52.002;4.688;2023-02-26T04:20:18;2.47;;;1.17;;
47545;SDS011;50104;52.002;4.688;2023-02-26T04:25:19;4.17;;;1.20;;
47545;SDS011;50104;52.002;4.688;2023-02-26T04:30:20;2.20;;;0.90;;
47545;SDS011;50104;52.002;4.688;2023-02-26T04:35:21;1.27;;;1.00;;
47545;SDS011;50104;52.002;4.688;2023-02-26T04:40:21;5.13;;;1.47;;
47545;SDS011;50104;52.002;4.688;2023-02-26T04:45:25;3.60;;;1.00;;
47545;SDS011;50104;52.002;4.688;2023-02-26T04:50:25;3.87;;;1.00;;
47545;SDS011;50104;52.002;4.688;2023-02-26T04:55:26;6.03;;;1.10;;
47545;SDS011;50104;52.002;4.688;2023-02-26T05:00:27;2.37;;;1.13;;
47545;SDS011;50104;52.002;4.688;2023-02-26T05:05:28;1.03;;;1.03;;
47545;SDS011;50104;52.002;4.688;2023-02-26T05:10:29;4.37;;;1.00;;
47545;SDS011;50104;52.002;4.688;2023-02-26T05:15:29;3.90;;;1.13;;
47545;SDS011;50104;52.002;4.688;2023-02-26T05:20:31;3.10;;;0.97;;
47545;SDS011;50104;52.002;4.688;2023-02-26T05:25:31;1.27;;;1.13;;
47545;SDS011;50104;52.002;4.688;2023-02-26T05:30:32;2.27;;;1.10;;
47545;SDS011;50104;52.002;4.688;2023-02-26T05:35:33;4.53;;;1.23;;
47545;SDS011;50104;52.002;4.688;2023-02-26T05:40:33;5.63;;;1.37;;
47545;SDS011;50104;52.002;4.688;2023-02-26T05:45:34;2.77;;;0.90;;
47545;SDS011;50104;52.002;4.688;2023-02-26T05:50:35;1.93;;;1.20;;
47545;SDS011;50104;52.002;4.688;2023-02-26T05:55:36;0.93;;;0.90;;
47545;SDS011;50104;52.002;4.688;2023-02-26T06:00:36;1.47;;;1.20;;
47545;SDS011;50104;52.002;4.688;2023-02-26T06:05:37;4.67;;;1.10;;
47545;SDS011;50104;52.002;4.688;2023-02-26T06:10:38;2.00;;;1.07;;
47545;SDS011;50104;52.002;4.688;2023-02-26T06:15:39;2.87;;;1.07;;
47545;SDS011;50104;52.002;4.688;2023-02-26T06:20:39;5.93;;;0.97;;
47545;SDS011;50104;52.002;4.688;2023-02-26T06:25:40;1.07;;;0.90;;
47545;SDS011;50104;52.002;4.688;2023-02-26T06:30:41;1.63;;;1.03;;
47545;SDS011;50104;52.002;4.688;2023-02-26T06:35:42;4.47;;;1.20;;
47545;SDS011;50104;52.002;4.688;2023-02-26T06:40:43;2.60;;;1.30;;
47545;SDS011;50104;52.002;4.688;2023-02-26T06:45:47;3.30;;;1.17;;
47545;SDS011;50104;52.002;4.688;2023-02-26T06:50:48;2.30;;;1.17;;
47545;SDS011;50104;52.002;4.688;2023-02-26T06:55:50;1.33;;;1.23;;
47545;SDS011;50104;52.002;4.688;2023-02-26T07:00:51;1.97;;;1.00;;
47545;SDS011;50104;52.002;4.688;2023-02-26T07:05:52;2.73;;;1.37;;
47545;SDS011;50104;52.002;4.688;2023-02-26T07:10:53;5.80;;;1.30;;
47545;SDS011;50104;52.002;4.688;2023-02-26T07:15:54;5.20;;;1.43;;
47545;SDS011;50104;52.002;4.688;2023-02-26T07:20:54;2.30;;;1.20;;
47545;SDS011;50104;52.002;4.688;2023-02-26T07:25:55;2.27;;;1.40;;
47545;SDS011;50104;52.002;4.688;2023-02-26T07:30:56;2.97;;;1.33;;
47545;SDS011;50104;52.002;4.688;2023-02-26T07:35:57;1.10;;;1.00;;
47545;SDS011;50104;52.002;4.688;2023-02-26T07:40:59;2.10;;;0.70;;
47545;SDS011;50104;52.002;4.688;2023-02-26T07:46:00;3.77;;;1.00;;
47545;SDS011;50104;52.002;4.688;2023-02-26T07:51:01;2.80;;;0.57;;
47545;SDS011;50104;52.002;4.688;2023-02-26T07:56:02;4.87;;;1.47;;
47545;SDS011;50104;52.002;4.688;2023-02-26T08:01:04;4.60;;;1.10;;
47545;SDS011;50104;52.002;4.688;2023-02-26T08:06:06;4.20;;;1.40;;
47545;SDS011;50104;52.002;4.688;2023-02-26T08:11:07;4.80;;;1.40;;
47545;SDS011;50104;52.002;4.688;2023-02-26T08:16:08;1.50;;;1.20;;
47545;SDS011;50104;52.002;4.688;2023-02-26T08:21:09;2.00;;;0.83;;
47545;SDS011;50104;52.002;4.688;2023-02-26T08:26:10;1.57;;;1.10;;
47545;SDS011;50104;52.002;4.688;2023-02-26T08:31:13;7.80;;;1.27;;
47545;SDS011;50104;52.002;4.688;2023-02-26T08:36:14;2.67;;;1.13;;
47545;SDS011;50104;52.002;4.688;2023-02-26T08:41:15;2.30;;;1.20;;
47545;SDS011;50104;52.002;4.688;2023-02-26T08:46:16;3.83;;;1.43;;
47545;SDS011;50104;52.002;4.688;2023-02-26T08:51:18;1.63;;;0.97;;
47545;SDS011;50104;52.002;4.688;2023-02-26T08:56:20;1.33;;;0.87;;
47545;SDS011;50104;52.002;4.688;2023-02-26T09:01:20;1.20;;;1.10;;
47545;SDS011;50104;52.002;4.688;2023-02-26T09:06:21;0.73;;;0.30;;
47545;SDS011;50104;52.002;4.688;2023-02-26T09:11:22;3.90;;;1.13;;
47545;SDS011;50104;52.002;4.688;2023-02-26T09:16:23;2.80;;;1.13;;
47545;SDS011;50104;52.002;4.688;2023-02-26T09:21:25;0.73;;;0.73;;
47545;SDS011;50104;52.002;4.688;2023-02-26T09:26:26;0.87;;;0.70;;
47545;SDS011;50104;52.002;4.688;2023-02-26T09:31:26;1.60;;;1.17;;
47545;SDS011;50104;52.002;4.688;2023-02-26T09:36:27;2.63;;;0.60;;
47545;SDS011;50104;52.002;4.688;2023-02-26T09:41:30;1.37;;;0.70;;
47545;SDS011;50104;52.002;4.688;2023-02-26T09:46:43;2.03;;;0.83;;
47545;SDS011;50104;52.002;4.688;2023-02-26T09:51:56;2.77;;;0.90;;
47545;SDS011;50104;52.002;4.688;2023-02-26T09:57:24;2.10;;;0.90;;
47545;SDS011;50104;52.002;4.688;2023-02-26T10:02:48;1.33;;;0.70;;
47545;SDS011;50104;52.002;4.688;2023-02-26T10:08:13;1.10;;;0.20;;
47545;SDS011;50104;52.002;4.688;2023-02-26T10:18:33;4.73;;;0.87;;
47545;SDS011;50104;52.002;4.688;2023-02-26T10:23:42;3.30;;;0.60;;
47545;SDS011;50104;52.002;4.688;2023-02-26T10:34:07;2.47;;;0.70;;
47545;SDS011;50104;52.002;4.688;2023-02-26T10:50:50;5.15;;;1.05;;
47545;SDS011;50104;52.002;4.688;2023-02-26T10:56:09;1.08;;;0.50;;
47545;SDS011;50104;52.002;4.688;2023-02-26T11:01:16;0.52;;;0.52;;
47545;SDS011;50104;52.002;4.688;2023-02-26T11:06:21;1.13;;;0.50;;
47545;SDS011;50104;52.002;4.688;2023-02-26T11:16:51;2.03;;;0.70;;
47545;SDS011;50104;52.002;4.688;2023-02-26T11:21:55;0.82;;;0.40;;
47545;SDS011;50104;52.002;4.688;2023-02-26T11:26:57;5.20;;;0.70;;
47545;SDS011;50104;52.002;4.688;2023-02-26T11:32:03;2.95;;;0.63;;
47545;SDS011;50104;52.002;4.688;2023-02-26T11:37:04;1.10;;;0.60;;
47545;SDS011;50104;52.002;4.688;2023-02-26T11:42:06;2.10;;;0.80;;
47545;SDS011;50104;52.002;4.688;2023-02-26T11:47:14;1.05;;;0.60;;
47545;SDS011;50104;52.002;4.688;2023-02-26T11:52:28;1.23;;;0.55;;
47545;SDS011;50104;52.002;4.688;2023-02-26T11:57:34;2.55;;;0.50;;
47545;SDS011;50104;52.002;4.688;2023-02-26T12:02:41;3.67;;;0.98;;
47545;SDS011;50104;52.002;4.688;2023-02-26T12:07:43;2.03;;;0.50;;
47545;SDS011;50104;52.002;4.688;2023-02-26T12:12:52;2.60;;;1.17;;
47545;SDS011;50104;52.002;4.688;2023-02-26T13:01:19;2.50;;;0.93;;
47545;SDS011;50104;52.002;4.688;2023-02-26T13:23:16;4.40;;;0.80;;
47545;SDS011;50104;52.002;4.688;2023-02-26T13:33:38;2.42;;;0.57;;
47545;SDS011;50104;52.002;4.688;2023-02-26T13:44:50;2.88;;;0.70;;
47545;SDS011;50104;52.002;4.688;2023-02-26T13:50:25;2.20;;;0.85;;
47545;SDS011;50104;52.002;4.688;2023-02-26T13:55:41;1.85;;;0.63;;
47545;SDS011;50104;52.002;4.688;2023-02-26T14:00:47;1.88;;;0.73;;
47545;SDS011;50104;52.002;4.688;2023-02-26T14:06:22;2.15;;;0.60;;
47545;SDS011;50104;52.002;4.688;2023-02-26T14:11:42;2.63;;;0.70;;
47545;SDS011;50104;52.002;4.688;2023-02-26T14:17:28;3.50;;;0.90;;
47545;SDS011;50104;52.002;4.688;2023-02-26T14:22:27;1.95;;;0.90;;
47545;SDS011;50104;52.002;4.688;2023-02-26T14:27:36;0.68;;;0.40;;
47545;SDS011;50104;52.002;4.688;2023-02-26T14:37:56;1.45;;;0.93;;
47545;SDS011;50104;52.002;4.688;2023-02-26T14:43:03;0.35;;;0.30;;
47545;SDS011;50104;52.002;4.688;2023-02-26T14:48:07;0.73;;;0.40;;
47545;SDS011;50104;52.002;4.688;2023-02-26T15:31:28;2.03;;;0.55;;
47545;SDS011;50104;52.002;4.688;2023-02-26T15:36:35;4.63;;;0.60;;
47545;SDS011;50104;52.002;4.688;2023-02-26T15:41:36;1.13;;;0.68;;
47545;SDS011;50104;52.002;4.688;2023-02-26T15:46:45;2.25;;;0.60;;
47545;SDS011;50104;52.002;4.688;2023-02-26T15:51:51;1.83;;;0.50;;
47545;SDS011;50104;52.002;4.688;2023-02-26T15:56:52;0.88;;;0.47;;
47545;SDS011;50104;52.002;4.688;2023-02-26T16:01:54;1.83;;;0.80;;
47545;SDS011;50104;52.002;4.688;2023-02-26T16:06:55;0.68;;;0.47;;
47545;SDS011;50104;52.002;4.688;2023-02-26T16:11:57;5.10;;;0.77;;
47545;SDS011;50104;52.002;4.688;2023-02-26T16:17:27;2.10;;;0.93;;
47545;SDS011;50104;52.002;4.688;2023-02-26T16:22:37;1.77;;;0.60;;
47545;SDS011;50104;52.002;4.688;2023-02-26T16:27:41;1.25;;;0.60;;
47545;SDS011;50104;52.002;4.688;2023-02-26T16:32:52;1.55;;;0.65;;
47545;SDS011;50104;52.002;4.688;2023-02-26T16:37:54;1.42;;;0.70;;
47545;SDS011;50104;52.002;4.688;2023-02-26T16:48:54;2.47;;;1.00;;
47545;SDS011;50104;52.002;4.688;2023-02-26T16:54:19;1.77;;;0.80;;
47545;SDS011;50104;52.002;4.688;2023-02-26T16:59:30;1.15;;;0.85;;
47545;SDS011;50104;52.002;4.688;2023-02-26T17:04:34;2.50;;;1.05;;
47545;SDS011;50104;52.002;4.688;2023-02-26T17:14:46;2.67;;;0.90;;
47545;SDS011;50104;52.002;4.688;2023-02-26T17:19:59;2.85;;;0.90;;
47545;SDS011;50104;52.002;4.688;2023-02-26T17:25:00;5.05;;;1.50;;
47545;SDS011;50104;52.002;4.688;2023-02-26T17:30:02;4.95;;;1.08;;
47545;SDS011;50104;52.002;4.688;2023-02-26T17:35:05;2.42;;;0.93;;
47545;SDS011;50104;52.002;4.688;2023-02-26T17:40:16;2.05;;;0.80;;
47545;SDS011;50104;52.002;4.688;2023-02-26T17:45:22;3.25;;;0.93;;
47545;SDS011;50104;52.002;4.688;2023-02-26T17:55:52;1.77;;;0.95;;
47545;SDS011;50104;52.002;4.688;2023-02-26T18:00:55;2.35;;;1.00;;
47545;SDS011;50104;52.002;4.688;2023-02-26T18:05:57;3.58;;;1.00;;
47545;SDS011;50104;52.002;4.688;2023-02-26T18:10:58;4.47;;;1.45;;
47545;SDS011;50104;52.002;4.688;2023-02-26T18:16:00;5.80;;;1.80;;
47545;SDS011;50104;52.002;4.688;2023-02-26T18:21:01;3.97;;;1.60;;
47545;SDS011;50104;52.002;4.688;2023-02-26T18:26:04;3.37;;;1.30;;
47545;SDS011;50104;52.002;4.688;2023-02-26T18:31:05;3.00;;;1.83;;
47545;SDS011;50104;52.002;4.688;2023-02-26T18:36:24;6.97;;;2.10;;
47545;SDS011;50104;52.002;4.688;2023-02-26T18:41:33;2.53;;;1.70;;
47545;SDS011;50104;52.002;4.688;2023-02-26T18:46:34;2.10;;;1.90;;
47545;SDS011;50104;52.002;4.688;2023-02-26T18:51:39;2.57;;;1.90;;
47545;SDS011;50104;52.002;4.688;2023-02-26T18:56:39;8.13;;;2.22;;
47545;SDS011;50104;52.002;4.688;2023-02-26T19:01:40;3.87;;;1.77;;
47545;SDS011;50104;52.002;4.688;2023-02-26T19:06:41;3.93;;;1.60;;
47545;SDS011;50104;52.002;4.688;2023-02-26T19:11:42;2.67;;;1.50;;
47545;SDS011;50104;52.002;4.688;2023-02-26T19:16:43;4.67;;;2.33;;
47545;SDS011;50104;52.002;4.688;2023-02-26T19:21:44;10.40;;;3.23;;
47545;SDS011;50104;52.002;4.688;2023-02-26T19:26:45;5.60;;;2.63;;
47545;SDS011;50104;52.002;4.688;2023-02-26T19:31:46;4.17;;;1.73;;
47545;SDS011;50104;52.002;4.688;2023-02-26T19:36:47;5.27;;;2.17;;
47545;SDS011;50104;52.002;4.688;2023-02-26T19:41:48;6.27;;;1.80;;
47545;SDS011;50104;52.002;4.688;2023-02-26T19:46:52;7.20;;;2.27;;
47545;SDS011;50104;52.002;4.688;2023-02-26T19:51:53;2.43;;;2.00;;
47545;SDS011;50104;52.002;4.688;2023-02-26T19:56:54;2.53;;;1.73;;
47545;SDS011;50104;52.002;4.688;2023-02-26T20:01:55;6.67;;;1.80;;
47545;SDS011;50104;52.002;4.688;2023-02-26T20:06:55;5.63;;;1.97;;
47545;SDS011;50104;52.002;4.688;2023-02-26T20:11:56;5.83;;;2.17;;
47545;SDS011;50104;52.002;4.688;2023-02-26T20:16:57;5.53;;;1.43;;
47545;SDS011;50104;52.002;4.688;2023-02-26T20:21:58;2.90;;;1.40;;
47545;SDS011;50104;52.002;4.688;2023-02-26T20:26:59;3.53;;;1.47;;
47545;SDS011;50104;52.002;4.688;2023-02-26T20:32:00;2.80;;;1.40;;
47545;SDS011;50104;52.002;4.688;2023-02-26T20:37:00;5.47;;;2.20;;
47545;SDS011;50104;52.002;4.688;2023-02-26T20:42:01;4.30;;;2.10;;
47545;SDS011;50104;52.002;4.688;2023-02-26T20:47:04;4.73;;;1.67;;
47545;SDS011;50104;52.002;4.688;2023-02-26T20:52:04;1.70;;;1.53;;
47545;SDS011;50104;52.002;4.688;2023-02-26T20:57:05;3.87;;;2.00;;
47545;SDS011;50104;52.002;4.688;2023-02-26T21:02:06;2.33;;;1.67;;
47545;SDS011;50104;52.002;4.688;2023-02-26T21:07:10;4.23;;;1.30;;
47545;SDS011;50104;52.002;4.688;2023-02-26T21:12:17;4.13;;;1.80;;
47545;SDS011;50104;52.002;4.688;2023-02-26T21:17:18;3.87;;;1.60;;
47545;SDS011;50104;52.002;4.688;2023-02-26T21:22:21;3.30;;;1.70;;
47545;SDS011;50104;52.002;4.688;2023-02-26T21:27:22;2.00;;;1.40;;
47545;SDS011;50104;52.002;4.688;2023-02-26T21:32:23;2.83;;;1.40;;
47545;SDS011;50104;52.002;4.688;2023-02-26T21:37:24;4.17;;;1.70;;
47545;SDS011;50104;52.002;4.688;2023-02-26T21:42:25;4.50;;;2.27;;
47545;SDS011;50104;52.002;4.688;2023-02-26T21:47:26;2.97;;;2.23;;
47545;SDS011;50104;52.002;4.688;2023-02-26T21:52:26;3.53;;;2.03;;
47545;SDS011;50104;52.002;4.688;2023-02-26T21:57:28;4.60;;;1.60;;
47545;SDS011;50104;52.002;4.688;2023-02-26T22:02:29;5.90;;;1.83;;
47545;SDS011;50104;52.002;4.688;2023-02-26T22:07:30;3.90;;;1.80;;
47545;SDS011;50104;52.002;4.688;2023-02-26T22:12:31;2.80;;;1.50;;
47545;SDS011;50104;52.002;4.688;2023-02-26T22:17:32;2.70;;;1.60;;
47545;SDS011;50104;52.002;4.688;2023-02-26T22:22:33;3.43;;;1.63;;
47545;SDS011;50104;52.002;4.688;2023-02-26T22:27:34;4.50;;;2.00;;
47545;SDS011;50104;52.002;4.688;2023-02-26T22:32:34;2.07;;;1.50;;
47545;SDS011;50104;52.002;4.688;2023-02-26T22:37:35;2.73;;;1.50;;
47545;SDS011;50104;52.002;4.688;2023-02-26T22:42:36;4.10;;;1.67;;
47545;SDS011;50104;52.002;4.688;2023-02-26T22:47:38;1.57;;;1.20;;
47545;SDS011;50104;52.002;4.688;2023-02-26T22:52:39;5.93;;;1.63;;
47545;SDS011;50104;52.002;4.688;2023-02-26T22:57:40;3.00;;;1.40;;
47545;SDS011;50104;52.002;4.688;2023-02-26T23:02:41;6.07;;;1.40;;
47545;SDS011;50104;52.002;4.688;2023-02-26T23:07:42;3.33;;;1.40;;
47545;SDS011;50104;52.002;4.688;2023-02-26T23:12:43;3.50;;;1.70;;
47545;SDS011;50104;52.002;4.688;2023-02-26T23:17:44;4.70;;;2.03;;
47545;SDS011;50104;52.002;4.688;2023-02-26T23:22:45;3.70;;;1.53;;
47545;SDS011;50104;52.002;4.688;2023-02-26T23:27:46;2.20;;;1.60;;
47545;SDS011;50104;52.002;4.688;2023-02-26T23:32:47;6.43;;;1.50;;
47545;SDS011;50104;52.002;4.688;2023-02-26T23:37:48;1.20;;;1.10;;
47545;SDS011;50104;52.002;4.688;2023-02-26T23:42:49;4.87;;;1.43;;
47545;SDS011;50104;52.002;4.688;2023-02-26T23:47:50;2.93;;;1.47;;
47545;SDS011;50104;52.002;4.688;2023-02-26T23:52:51;5.50;;;1.77;;
47545;SDS011;50104;52.002;4.688;2023-02-26T23:57:52;2.70;;;1.33;;
